Accueil
METAR-TAF:

METAR-TAF

Aéroports :

Barbacena, Minas Gerais, Brésil

latitude: 21-15S, longitude: 043-46W, altitude: 1171 m

Observation

Le bulletin a été fait il y a 1 heure et 21 minutes, à 18:00 UTC
Vent 6 kt de ouest, variant entre sud-ouest et nord-ouest
Température 26°C
Humidité 61%
Pression 1020 hPa
Visibilité 10 km ou plus
Nuages épars à une hauteur de 2000 ft
Quelques nuages à une hauteur de 2500 ft, Cumulus congestus.

METAR: SBBQ 061800Z 27006KT 220V310 9999 SCT020 FEW025TCU 26/18 Q1020

Heure: 16:21 (19:21 UTC)


TAF: absent

Observations et prévisions météorologiques de plus de 4000 aéroports (messages METAR et TAF).

Les stations disponibles sont représentées par des disques jaunes et rouges sur la carte.

Passer la souris dessus pour voir le nom de la station.

Cliquer dessus pour voir les observations et prévisions météorologiques.

Pour changer de carte: cliquez sur les boutons verts avec une croix noire pour zoomer, sur le bouton vert avec un tiret pour effectuer un zoom arrière, ou sur les flèches vertes pour les cartes adjacentes.


METAR-TAF: